createdAt,value
2023-04-18T12:34:35.337Z,61.0919
2023-04-18T12:35:36.319Z,60.2881
2023-04-18T12:36:37.353Z,58.2930
2023-04-18T12:37:38.362Z,58.7666
2023-04-18T12:38:39.370Z,58.8987
2023-04-18T12:39:40.314Z,60.7041
2023-04-18T12:40:41.289Z,62.0906
2023-04-18T12:41:42.255Z,61.8652
2023-04-18T12:42:43.221Z,60.1603
2023-04-18T12:43:44.212Z,59.9703
2023-04-18T12:44:46.956Z,61.4152
2023-04-18T12:45:46.326Z,60.0149
2023-04-18T12:46:47.351Z,60.4753
2023-04-18T12:47:48.393Z,61.1241
2023-04-18T12:48:49.378Z,59.7716
2023-04-18T12:49:50.438Z,59.0159
2023-04-18T12:50:51.374Z,56.3811
2023-04-18T12:51:52.379Z,53.4327
2023-04-18T12:52:53.429Z,55.9464
2023-04-18T12:53:54.405Z,57.9199
2023-04-18T12:54:55.362Z,60.0961
2023-04-18T12:55:56.351Z,58.9674
2023-04-18T12:56:57.327Z,58.6596
2023-04-18T12:57:58.369Z,57.6244
2023-04-18T12:58:59.300Z,58.2392
2023-04-18T13:00:00.310Z,57.3779
2023-04-18T13:01:01.309Z,54.9825
2023-04-18T13:02:02.317Z,57.1813
2023-04-18T13:03:03.499Z,56.8195
2023-04-18T13:04:12.447Z,57.8735
2023-04-18T13:05:06.341Z,59.4353
2023-04-18T13:06:08.410Z,59.3835
2023-04-18T13:07:09.337Z,59.0934
2023-04-18T13:08:17.054Z,57.5657
2023-04-18T13:09:12.363Z,56.2697
2023-04-18T13:10:13.453Z,54.9839
2023-04-18T13:11:14.471Z,52.6735
2023-04-18T13:12:15.410Z,54.6255
2023-04-18T13:13:16.480Z,57.3411
2023-04-18T13:14:17.465Z,59.7583
2023-04-18T13:15:18.428Z,60.3775
2023-04-18T13:16:19.491Z,59.2459
2023-04-18T13:17:20.490Z,56.6971
2023-04-18T13:18:21.473Z,55.7841
2023-04-18T13:19:22.415Z,54.3201
2023-04-18T13:20:23.493Z,52.3582
2023-04-18T13:21:24.421Z,56.2732
2023-04-18T13:22:25.412Z,56.6032
2023-04-18T13:23:26.419Z,55.3204
2023-04-18T13:24:27.383Z,55.1081
2023-04-18T13:25:28.390Z,53.2624
2023-04-18T13:26:29.336Z,55.2483
2023-04-18T13:27:30.317Z,57.0515
2023-04-18T13:28:31.009Z,57.5252
2023-04-18T13:29:31.197Z,57.2697
2023-04-18T13:30:32.038Z,56.1149
2023-04-18T13:31:32.827Z,54.6356
2023-04-18T13:32:33.676Z,54.3780
2023-04-18T13:33:34.396Z,55.9654
2023-04-18T13:34:35.129Z,56.3104
2023-04-18T13:35:35.889Z,53.9257
2023-04-18T13:36:36.635Z,51.4596
2023-04-18T13:37:37.630Z,53.5038
2023-04-18T13:38:38.400Z,53.4250
2023-04-18T13:39:39.644Z,52.8612
2023-04-18T13:40:40.361Z,51.3536
2023-04-18T13:41:41.131Z,51.1897
2023-04-18T13:42:41.836Z,52.6930
2023-04-18T13:43:42.829Z,55.1123
2023-04-18T13:44:43.583Z,51.6234
2023-04-18T13:45:44.439Z,51.5500
2023-04-18T13:46:45.417Z,53.1515
2023-04-18T13:47:46.131Z,50.1883
2023-04-18T13:48:46.887Z,49.8031
2023-04-18T13:49:47.601Z,49.3121
2023-04-18T13:50:48.344Z,51.5003
2023-04-18T13:51:49.115Z,50.8071
2023-04-18T13:52:49.808Z,51.3922
2023-04-18T13:53:50.579Z,52.1517
2023-04-18T13:54:51.343Z,51.5207
2023-04-18T13:55:52.061Z,52.2244
2023-04-18T13:56:52.803Z,52.1260
2023-04-18T13:57:53.561Z,53.6280
2023-04-18T13:58:54.290Z,52.8959
2023-04-18T13:59:55.010Z,52.0860
2023-04-18T14:00:56.318Z,52.0775
2023-04-18T14:01:57.167Z,51.9685
2023-04-18T14:02:58.059Z,49.0358
2023-04-18T14:03:59.037Z,48.0145
2023-04-18T14:05:00.037Z,47.1454
2023-04-18T14:06:00.859Z,47.8353
2023-04-18T14:07:01.659Z,48.0771
2023-04-18T14:08:02.397Z,48.8203
2023-04-18T14:09:03.369Z,48.8829
2023-04-18T14:10:04.106Z,48.5426
2023-04-18T14:11:04.873Z,47.3359
2023-04-18T14:12:05.593Z,46.4090
2023-04-18T14:13:06.334Z,48.0797
2023-04-18T14:14:07.073Z,48.8371
2023-04-18T14:15:07.890Z,48.6029
2023-04-18T14:16:08.686Z,48.4624
2023-04-18T14:17:09.426Z,49.1625
2023-04-18T14:18:10.205Z,49.1125
2023-04-18T14:19:11.036Z,48.0613
2023-04-18T14:20:11.818Z,47.5464
2023-04-18T14:21:12.592Z,48.3998
2023-04-18T14:22:14.375Z,49.7767
2023-04-18T14:23:15.100Z,49.1146
2023-04-18T14:24:15.870Z,49.5337
2023-04-18T14:25:16.615Z,48.4886
2023-04-18T14:26:17.358Z,47.1689
2023-04-18T14:27:18.105Z,45.7417
2023-04-18T14:28:18.844Z,45.3168
2023-04-18T14:29:19.582Z,46.9132
2023-04-18T14:30:20.318Z,47.8596
2023-04-18T14:31:21.125Z,49.8861
2023-04-18T14:32:21.902Z,52.4632
2023-04-18T14:33:22.633Z,53.8178
2023-04-18T14:34:23.390Z,53.0326
2023-04-18T14:35:24.118Z,51.2933
2023-04-18T14:36:24.854Z,51.0421
2023-04-18T14:37:25.613Z,50.8240
2023-04-18T14:38:26.346Z,51.2030
2023-04-18T14:39:27.119Z,50.9019
2023-04-18T14:40:27.888Z,52.1425
2023-04-18T14:41:28.631Z,49.9143
2023-04-18T14:42:29.410Z,48.1852
2023-04-18T14:43:30.156Z,48.5436
2023-04-18T14:44:30.949Z,50.7072
2023-04-18T14:45:31.693Z,51.4521
2023-04-18T14:46:32.489Z,49.6127
2023-04-18T14:47:33.274Z,48.2198
2023-04-18T14:48:34.010Z,47.9941
2023-04-18T14:49:34.758Z,48.3877
2023-04-18T14:50:35.501Z,48.5214
2023-04-18T14:51:36.306Z,47.1335
2023-04-18T14:52:37.058Z,49.0569
2023-04-18T14:53:37.805Z,51.3391
2023-04-18T14:54:38.581Z,52.8508
2023-04-18T14:55:39.317Z,53.0131
2023-04-18T14:56:40.178Z,50.2379
2023-04-18T14:57:40.939Z,49.4206
2023-04-18T14:58:41.696Z,51.3427
2023-04-18T14:59:42.480Z,49.8712
2023-04-18T15:00:43.218Z,49.6596
2023-04-18T15:01:43.974Z,47.8954
2023-04-18T15:02:44.987Z,48.0997
2023-04-18T15:03:46.007Z,45.6407
2023-04-18T15:04:46.976Z,46.7602
2023-04-18T15:05:47.756Z,48.4530
2023-04-18T15:06:48.543Z,49.2501
2023-04-18T15:07:49.275Z,48.3510
2023-04-18T15:08:50.018Z,46.6423
2023-04-18T15:09:50.806Z,44.7151
2023-04-18T15:10:51.570Z,45.3014
2023-04-18T15:11:59.846Z,47.0750
2023-04-18T15:13:00.586Z,44.1158
2023-04-18T15:14:01.807Z,44.1728
2023-04-18T15:15:02.559Z,45.0052
2023-04-18T15:16:03.383Z,46.1655
2023-04-18T15:17:04.162Z,45.6332
2023-04-18T15:18:04.992Z,45.5483
2023-04-18T15:19:05.707Z,46.3864
2023-04-18T15:20:06.477Z,47.0892
2023-04-18T15:21:07.208Z,47.7836
2023-04-18T15:22:07.949Z,47.6339
2023-04-18T15:23:08.693Z,47.3753
2023-04-18T15:24:09.450Z,48.0711
2023-04-18T15:25:10.278Z,46.6047
2023-04-18T15:26:10.990Z,46.6674
2023-04-18T15:28:12.106Z,50.0505
2023-04-18T15:29:14.364Z,46.4003
2023-04-18T15:30:15.108Z,47.3939
2023-04-18T15:31:15.986Z,50.3762
2023-04-18T15:32:16.875Z,47.3507
2023-04-18T15:33:17.577Z,46.0841
2023-04-18T15:34:18.321Z,47.5088
2023-04-18T15:35:19.078Z,45.7763
2023-04-18T15:36:19.838Z,47.5522
2023-04-18T15:37:20.582Z,49.4332
2023-04-18T15:38:21.325Z,48.0613
2023-04-18T15:39:22.044Z,48.2226
2023-04-18T15:40:22.863Z,49.2709
2023-04-18T15:41:23.650Z,51.1569
2023-04-18T15:42:24.409Z,52.7906
2023-04-18T15:43:25.202Z,52.1816
2023-04-18T15:44:25.965Z,51.9809
2023-04-18T15:45:26.785Z,51.5505
2023-04-18T15:46:27.549Z,51.7747
2023-04-18T15:47:28.293Z,52.0364
2023-04-18T15:48:29.078Z,52.2022
2023-04-18T15:49:29.857Z,49.9487
2023-04-18T15:50:32.160Z,48.2194
2023-04-18T15:51:31.651Z,48.4921
2023-04-18T15:52:32.460Z,48.8559
2023-04-18T15:53:33.247Z,50.6920
2023-04-18T15:54:34.025Z,47.8773
2023-04-18T15:55:34.827Z,48.5052
2023-04-18T15:56:35.572Z,46.9015
2023-04-18T15:57:36.355Z,46.8289
2023-04-18T15:58:37.115Z,49.4141
2023-04-18T15:59:37.927Z,47.9884
2023-04-18T16:00:43.186Z,49.3195
2023-04-18T16:01:45.835Z,50.0622
2023-04-18T16:02:47.124Z,50.8132
2023-04-18T16:03:48.072Z,50.5211
2023-04-18T16:04:48.884Z,50.4518
2023-04-18T16:05:49.648Z,48.6023
2023-04-18T16:06:50.425Z,48.6256
2023-04-18T16:07:51.254Z,50.9397
2023-04-18T16:08:52.007Z,51.2961
2023-04-18T16:09:52.828Z,51.8195
2023-04-18T16:10:53.599Z,53.3718
2023-04-18T16:11:54.386Z,55.2217
2023-04-18T16:12:55.157Z,55.0169
2023-04-18T16:13:55.947Z,55.4805
2023-04-18T16:14:56.702Z,54.5921
2023-04-18T16:15:57.746Z,52.7435
2023-04-18T16:16:58.547Z,54.5655
2023-04-18T16:17:59.377Z,52.5213
2023-04-18T16:19:00.124Z,54.7965
2023-04-18T16:20:00.867Z,55.9434
2023-04-18T16:21:01.765Z,54.7084
2023-04-18T16:22:02.531Z,53.0610
2023-04-18T16:23:03.279Z,51.1965
2023-04-18T16:24:04.292Z,52.3405
2023-04-18T16:25:05.083Z,53.5207
2023-04-18T16:26:05.888Z,53.7095
2023-04-18T16:27:06.630Z,53.0996
2023-04-18T16:28:07.397Z,54.3189
2023-04-18T16:29:08.189Z,55.2215
2023-04-18T16:30:08.986Z,55.5503
2023-04-18T16:31:09.994Z,55.4933
2023-04-18T16:32:10.761Z,55.1549
2023-04-18T16:33:11.627Z,54.8990
2023-04-18T16:34:12.511Z,54.3907
2023-04-18T16:35:13.378Z,53.6007
2023-04-18T16:36:14.473Z,54.1090
2023-04-18T16:37:15.225Z,54.0127
2023-04-18T16:38:16.023Z,52.8321
2023-04-18T16:39:16.846Z,54.1929
2023-04-18T16:40:17.624Z,54.9306
2023-04-18T16:41:18.414Z,56.0108
2023-04-18T16:42:19.196Z,55.0030
2023-04-18T16:43:19.948Z,55.4187
2023-04-18T16:44:20.720Z,54.1824
2023-04-18T16:45:21.474Z,53.2135
2023-04-18T16:46:22.322Z,53.7920
2023-04-18T16:47:23.111Z,53.7626
2023-04-18T16:48:23.899Z,53.8611
2023-04-18T16:49:24.686Z,53.2691
2023-04-18T16:50:25.500Z,51.4145
2023-04-18T16:51:26.317Z,53.6215
2023-04-18T16:52:27.105Z,54.1580
2023-04-18T16:53:28.206Z,54.0335
2023-04-18T16:54:28.962Z,53.8907
2023-04-18T16:55:29.759Z,53.8978
2023-04-18T16:56:30.726Z,54.0898
2023-04-18T16:57:31.508Z,53.9131
2023-04-18T16:58:32.269Z,54.3977
2023-04-18T16:59:33.058Z,53.6905
2023-04-18T17:00:33.821Z,55.1894
2023-04-18T17:01:34.705Z,54.7024
2023-04-18T17:02:35.522Z,54.2023
2023-04-18T17:03:36.798Z,54.2002
2023-04-18T17:04:37.756Z,56.3818
2023-04-18T17:05:38.573Z,55.4841
2023-04-18T17:06:39.398Z,56.3141
2023-04-18T17:07:40.174Z,56.3084
2023-04-18T17:08:40.980Z,56.7615
2023-04-18T17:09:41.734Z,56.4422
2023-04-18T17:10:42.542Z,56.3261
2023-04-18T17:11:43.482Z,57.1869
2023-04-18T17:12:44.294Z,57.2811
2023-04-18T17:13:45.054Z,58.1136
2023-04-18T17:14:45.854Z,57.6995
2023-04-18T17:15:46.699Z,58.2114
2023-04-18T17:16:47.736Z,58.0893
2023-04-18T17:17:48.953Z,58.9297
2023-04-18T17:18:49.963Z,59.1936
2023-04-18T17:19:50.729Z,58.4490
2023-04-18T17:20:51.517Z,59.2706
2023-04-18T17:21:52.351Z,58.9160
2023-04-18T17:22:53.117Z,59.0574
2023-04-18T17:23:53.893Z,59.4378
2023-04-18T17:24:54.676Z,58.9260
2023-04-18T17:25:55.780Z,59.6017
2023-04-18T17:26:56.570Z,59.6348
2023-04-18T17:27:57.413Z,59.3469
2023-04-18T17:28:57.309Z,59.7932
2023-04-18T17:29:58.086Z,59.9315
2023-04-18T17:30:59.115Z,60.2281
2023-04-18T17:31:59.910Z,60.4627
2023-04-18T17:33:00.712Z,59.9949
2023-04-18T17:34:01.596Z,60.6464
2023-04-18T17:35:02.351Z,60.7400
2023-04-18T17:36:04.319Z,61.4638
2023-04-18T17:37:03.234Z,61.9406
2023-04-18T17:38:04.024Z,61.7901
2023-04-18T17:39:04.805Z,61.6768
2023-04-18T17:40:05.588Z,61.8726
2023-04-18T17:41:06.370Z,62.1290
2023-04-18T17:42:07.172Z,62.3055
2023-04-18T17:43:07.958Z,62.4848
2023-04-18T17:44:08.836Z,62.2493
2023-04-18T17:45:09.603Z,62.5813
2023-04-18T17:46:17.490Z,62.3335
2023-04-18T17:47:18.401Z,62.4659
2023-04-18T17:48:26.930Z,62.8170
2023-04-18T17:49:20.637Z,63.5164
2023-04-18T17:50:21.414Z,63.5180
2023-04-18T17:51:22.426Z,63.6664
2023-04-18T17:52:23.227Z,63.0952
2023-04-18T17:53:24.034Z,63.3513
2023-04-18T17:54:24.833Z,63.4884
2023-04-18T17:55:25.637Z,63.2026
2023-04-18T17:56:26.423Z,63.6746
2023-04-18T17:57:27.235Z,64.1289
2023-04-18T17:58:27.995Z,64.4387
2023-04-18T17:59:28.773Z,63.9559
2023-04-18T18:00:29.557Z,64.4898
2023-04-18T18:01:30.474Z,64.6680
2023-04-18T18:02:31.471Z,64.8347
2023-04-18T18:03:32.498Z,65.1412
2023-04-18T18:04:33.467Z,65.5271
2023-04-18T18:05:34.341Z,65.7463
2023-04-18T18:06:35.119Z,66.1835
2023-04-18T18:07:35.906Z,66.3941
2023-04-18T18:08:37.072Z,66.4970
2023-04-18T18:09:37.867Z,66.5549
2023-04-18T18:10:38.617Z,66.8719
2023-04-18T18:11:39.384Z,67.0827
2023-04-18T18:12:40.381Z,67.3109
2023-04-18T18:13:41.180Z,67.4163
2023-04-18T18:14:41.994Z,67.5541
2023-04-18T18:15:42.744Z,67.6239
2023-04-18T18:16:43.567Z,67.4907
2023-04-18T18:17:44.407Z,67.7863
2023-04-18T18:18:45.235Z,68.0399
2023-04-18T18:19:46.028Z,68.1070
2023-04-18T18:20:46.793Z,68.3854
2023-04-18T18:21:47.588Z,68.5926
2023-04-18T18:22:48.373Z,68.8042
2023-04-18T18:23:49.153Z,68.8816
2023-04-18T18:24:49.928Z,68.6048
2023-04-18T18:25:50.711Z,68.6501
2023-04-18T18:26:51.832Z,69.0443
2023-04-18T18:27:52.676Z,69.0639
2023-04-18T18:28:53.418Z,69.3041
2023-04-18T18:29:54.198Z,69.4633
2023-04-18T18:30:54.990Z,69.5123
2023-04-18T18:31:55.721Z,69.5532
2023-04-18T18:32:56.528Z,69.5941
2023-04-18T18:33:57.312Z,69.5897
2023-04-18T18:34:58.110Z,69.8552
2023-04-18T18:35:58.880Z,69.7926
2023-04-18T18:36:59.653Z,69.8324
2023-04-18T18:38:00.702Z,69.8619
2023-04-18T18:39:01.485Z,69.9202
2023-04-18T18:40:02.261Z,70.0925
2023-04-18T18:41:03.926Z,70.2980
2023-04-18T18:42:04.719Z,70.4498
2023-04-18T18:43:05.538Z,70.5460
2023-04-18T18:44:06.292Z,70.4954
2023-04-18T18:45:07.048Z,70.3945
2023-04-18T18:46:07.856Z,70.4468
2023-04-18T18:47:08.606Z,70.7035
2023-04-18T18:48:09.644Z,70.6055
2023-04-18T18:49:10.430Z,70.5933
2023-04-18T18:50:11.177Z,70.6584
2023-04-18T18:51:11.989Z,70.7762
2023-04-18T18:52:12.794Z,70.8317
2023-04-18T18:53:13.575Z,70.9622
2023-04-18T18:54:14.347Z,71.0561
2023-04-18T18:55:15.154Z,71.2755
2023-04-18T18:56:15.925Z,71.2718
2023-04-18T18:57:16.683Z,71.2402
2023-04-18T18:58:17.477Z,71.3134
2023-04-18T18:59:18.250Z,71.3399
2023-04-18T19:00:19.032Z,71.4867
2023-04-18T19:01:19.839Z,71.7139
2023-04-18T19:02:20.818Z,71.7122
2023-04-18T19:03:21.885Z,71.5871
2023-04-18T19:04:22.869Z,71.5341
2023-04-18T19:05:23.889Z,71.6789
2023-04-18T19:06:24.660Z,71.3199
2023-04-18T19:07:25.525Z,71.2397
2023-04-18T19:08:26.854Z,71.2844
2023-04-18T19:09:27.600Z,71.4624
2023-04-18T19:10:28.366Z,71.5737
2023-04-18T19:11:29.174Z,71.5024
2023-04-18T19:12:29.920Z,71.6994
2023-04-18T19:13:30.872Z,71.7019
2023-04-18T19:14:31.634Z,71.5960
2023-04-18T19:15:32.408Z,71.7967
2023-04-18T19:16:33.239Z,71.9138
2023-04-18T19:17:34.034Z,71.9196
2023-04-18T19:18:34.804Z,72.1367
2023-04-18T19:19:35.572Z,72.1378
2023-04-18T19:20:36.394Z,71.9738
2023-04-18T19:21:37.206Z,72.0569
2023-04-18T19:22:38.006Z,72.2946
2023-04-18T19:23:38.857Z,72.4282
2023-04-18T19:24:39.630Z,72.4495
2023-04-18T19:25:40.448Z,72.3845
2023-04-18T19:26:41.212Z,72.3859
2023-04-18T19:27:41.996Z,72.4204
2023-04-18T19:28:42.784Z,72.6422
2023-04-18T19:29:43.575Z,72.8018
2023-04-18T19:30:44.376Z,73.0287
2023-04-18T19:31:45.143Z,73.0504
2023-04-18T19:32:45.956Z,73.1480
2023-04-18T19:33:46.729Z,73.2359
2023-04-18T19:34:47.542Z,73.1267
2023-04-18T19:35:48.333Z,73.3163
2023-04-18T19:36:49.109Z,73.4043
2023-04-18T19:37:49.886Z,73.4924
2023-04-18T19:38:50.706Z,73.4029
2023-04-18T19:39:51.495Z,73.3287
2023-04-18T19:40:52.275Z,73.4541
2023-04-18T19:41:53.039Z,73.2879
2023-04-18T19:42:54.073Z,73.4017
2023-04-18T19:43:54.862Z,73.5363
2023-04-18T19:44:55.636Z,73.5470
2023-04-18T19:45:56.469Z,73.6388
2023-04-18T19:46:57.240Z,73.8417
2023-04-18T19:47:58.075Z,73.8957
2023-04-18T19:48:58.833Z,73.9736
2023-04-18T19:49:59.619Z,73.7411
2023-04-18T19:51:00.396Z,74.1661
2023-04-18T19:52:01.209Z,74.2364
2023-04-18T19:53:02.016Z,74.3350
2023-04-18T19:54:02.815Z,74.5182
2023-04-18T19:55:03.586Z,74.4968
2023-04-18T19:56:04.352Z,74.5556
2023-04-18T19:57:05.118Z,74.6609
2023-04-18T19:58:05.914Z,74.6188
2023-04-18T19:59:06.701Z,74.7081
2023-04-18T20:00:07.460Z,74.7915
2023-04-18T20:01:08.311Z,74.9254
2023-04-18T20:02:09.133Z,75.0240
2023-04-18T20:03:10.064Z,74.9508
2023-04-18T20:04:11.162Z,75.0090
2023-04-18T20:05:12.133Z,75.1105
2023-04-18T20:06:13.031Z,75.1465
2023-04-18T20:07:13.786Z,75.2515
2023-04-18T20:08:14.581Z,75.3661
2023-04-18T20:09:15.636Z,75.3378
2023-04-18T20:10:16.853Z,75.4652
2023-04-18T20:11:17.609Z,75.5066
2023-04-18T20:12:18.415Z,75.6380
2023-04-18T20:13:19.418Z,75.7084
2023-04-18T20:14:20.198Z,75.8457
2023-04-18T20:15:20.997Z,75.9534
2023-04-18T20:16:21.782Z,76.0964
2023-04-18T20:17:22.592Z,76.1031
2023-04-18T20:18:23.435Z,75.9008
2023-04-18T20:19:24.244Z,75.7213
2023-04-18T20:20:25.003Z,75.9224
2023-04-18T20:21:25.754Z,76.1112
2023-04-18T20:22:26.548Z,76.0770
2023-04-18T20:23:27.564Z,76.2482
2023-04-18T20:24:28.380Z,76.4160
2023-04-18T20:25:29.210Z,76.3387
2023-04-18T20:26:29.952Z,76.4569
2023-04-18T20:27:30.744Z,76.2780
2023-04-18T20:28:38.644Z,76.1371
2023-04-18T20:29:39.444Z,76.1965
2023-04-18T20:30:40.260Z,76.2474
2023-04-18T20:31:41.026Z,76.3908
2023-04-18T20:32:41.851Z,76.5159
2023-04-18T20:33:42.585Z,76.5609
2023-04-18T20:34:51.940Z,76.4331
2023-04-18T20:35:52.733Z,76.4971
2023-04-18T20:36:53.516Z,76.3938
2023-04-18T20:37:54.306Z,76.4437
2023-04-18T20:38:55.095Z,76.4554
2023-04-18T20:39:55.898Z,76.4626
2023-04-18T20:40:56.660Z,76.6661
2023-04-18T20:41:57.537Z,76.7216
2023-04-18T20:42:58.429Z,76.8251
2023-04-18T20:43:59.198Z,76.9426
2023-04-18T20:44:59.956Z,77.0052
2023-04-18T20:46:00.764Z,77.1822
2023-04-18T20:47:01.541Z,77.2778
2023-04-18T20:48:02.614Z,77.3771
2023-04-18T20:49:03.372Z,77.3872
2023-04-18T20:50:04.176Z,77.5087
2023-04-18T20:51:04.979Z,77.4990
2023-04-18T20:52:05.769Z,77.2874
2023-04-18T20:53:06.529Z,77.2408
2023-04-18T20:54:07.305Z,77.1689
2023-04-18T20:55:08.089Z,77.3535
2023-04-18T20:56:08.951Z,77.4466
2023-04-18T20:57:09.714Z,77.4152
2023-04-18T20:58:10.523Z,77.5387
2023-04-18T20:59:11.310Z,77.5856
2023-04-18T21:00:12.068Z,77.7275
2023-04-18T21:01:12.898Z,77.7803
2023-04-18T21:02:13.795Z,77.8611
2023-04-18T21:03:14.667Z,77.8982
2023-04-18T21:04:15.923Z,77.6964
2023-04-18T21:05:17.557Z,77.8238
2023-04-18T21:06:18.326Z,77.8172
2023-04-18T21:07:19.097Z,77.8635
2023-04-18T21:08:20.145Z,77.9627
2023-04-18T21:09:20.936Z,78.0903
2023-04-18T21:10:21.701Z,78.0324
2023-04-18T21:11:22.453Z,77.9416
2023-04-18T21:12:23.248Z,78.0006
2023-04-18T21:13:24.035Z,77.8689
2023-04-18T21:14:24.824Z,78.1546
2023-04-18T21:15:25.872Z,78.2559
2023-04-18T21:16:26.699Z,78.1281
2023-04-18T21:17:27.473Z,78.0004
2023-04-18T21:18:28.514Z,78.0019
2023-04-18T21:19:29.299Z,78.0922
2023-04-18T21:20:30.117Z,78.0755
2023-04-18T21:21:30.910Z,78.0555
2023-04-18T21:22:31.663Z,78.2017
2023-04-18T21:23:32.458Z,78.3995
2023-04-18T21:24:33.212Z,78.5204
2023-04-18T21:25:34.225Z,78.6128
2023-04-18T21:26:35.021Z,78.5939
2023-04-18T21:27:35.802Z,78.2819
2023-04-18T21:28:36.790Z,78.2540
2023-04-18T21:29:37.553Z,78.2385
2023-04-18T21:30:38.345Z,78.3667
2023-04-18T21:31:39.171Z,78.5914
2023-04-18T21:32:39.927Z,78.5775
2023-04-18T21:33:40.691Z,78.6548
2023-04-18T21:34:42.420Z,78.8373
2023-04-18T21:35:43.187Z,78.8689
2023-04-18T21:36:44.002Z,78.9109
2023-04-18T21:37:44.754Z,79.0620
2023-04-18T21:38:45.533Z,79.1361
2023-04-18T21:39:46.311Z,79.0593
2023-04-18T21:40:47.080Z,78.9154
2023-04-18T21:41:47.858Z,79.1069
2023-04-18T21:42:49.881Z,78.9980
2023-04-18T21:43:50.732Z,79.0511
2023-04-18T21:44:51.489Z,79.1855
2023-04-18T21:45:52.366Z,79.1479
2023-04-18T21:46:53.114Z,79.1634
2023-04-18T21:47:54.166Z,79.0884
2023-04-18T21:48:54.916Z,79.2108
2023-04-18T21:49:55.708Z,79.2791
2023-04-18T21:50:56.712Z,79.4141
2023-04-18T21:51:57.486Z,79.5449
2023-04-18T21:52:58.290Z,79.6791
2023-04-18T21:53:59.080Z,79.6991
2023-04-18T21:54:59.860Z,79.4806
2023-04-18T21:56:00.640Z,79.4421
2023-04-18T21:57:01.423Z,79.4848
2023-04-18T21:58:03.226Z,79.6129
2023-04-18T21:59:04.023Z,79.5867
2023-04-18T22:00:04.778Z,79.7404
2023-04-18T22:01:05.847Z,79.8134
2023-04-18T22:02:06.845Z,79.7050
2023-04-18T22:03:07.901Z,79.8067
2023-04-18T22:04:08.884Z,79.8084
2023-04-18T22:05:09.765Z,79.9903
2023-04-18T22:06:10.558Z,80.1222
2023-04-18T22:07:11.340Z,80.1020
2023-04-18T22:08:12.155Z,80.1099
2023-04-18T22:09:12.967Z,80.1369
2023-04-18T22:10:13.747Z,80.1749
2023-04-18T22:11:14.526Z,80.1781
2023-04-18T22:12:15.301Z,80.2030
2023-04-18T22:13:16.103Z,80.2576
2023-04-18T22:14:17.019Z,80.2357
2023-04-18T22:15:17.801Z,80.3342
2023-04-18T22:16:18.829Z,80.4921
2023-04-18T22:17:19.628Z,80.5494
2023-04-18T22:18:20.420Z,80.5006
2023-04-18T22:19:21.230Z,80.4550
2023-04-18T22:20:22.022Z,80.5860
2023-04-18T22:21:22.823Z,80.6788
2023-04-18T22:22:23.668Z,80.7914
2023-04-18T22:23:24.491Z,80.7718
2023-04-18T22:24:25.289Z,80.8903
2023-04-18T22:25:26.104Z,80.9506
2023-04-18T22:26:26.915Z,80.9027
2023-04-18T22:27:27.719Z,80.8864
2023-04-18T22:28:28.787Z,80.9191
2023-04-18T22:29:29.583Z,81.0685
2023-04-18T22:30:30.473Z,81.1698
2023-04-18T22:31:31.388Z,80.9999
2023-04-18T22:32:32.200Z,80.7647
2023-04-18T22:33:32.955Z,80.8106
2023-04-18T22:34:33.787Z,80.8597
2023-04-18T22:35:34.622Z,80.9984
2023-04-18T22:36:35.982Z,81.0053
2023-04-18T22:37:36.772Z,81.1039
2023-04-18T22:38:37.590Z,81.3248
2023-04-18T22:39:38.422Z,81.4942
2023-04-18T22:40:39.241Z,81.5089
2023-04-18T22:41:40.089Z,81.5036
2023-04-18T22:42:40.891Z,81.5649
2023-04-18T22:43:41.735Z,81.5073
2023-04-18T22:44:42.553Z,81.6383
2023-04-18T22:45:43.435Z,81.7756
2023-04-18T22:46:44.281Z,81.7300
2023-04-18T22:47:45.250Z,81.5869
2023-04-18T22:48:46.138Z,81.4942
2023-04-18T22:49:46.925Z,81.5588
2023-04-18T22:50:47.723Z,81.6895
2023-04-18T22:51:48.586Z,81.7540
2023-04-18T22:52:49.437Z,81.6656
2023-04-18T22:53:50.288Z,81.6880
2023-04-18T22:54:51.135Z,81.7562
2023-04-18T22:55:52.164Z,81.8226
2023-04-18T22:56:52.991Z,81.8362
2023-04-18T22:57:53.795Z,81.9078
2023-04-18T22:58:54.633Z,81.8101
2023-04-18T22:59:55.425Z,81.7289
2023-04-18T23:00:56.254Z,81.7114
2023-04-18T23:01:57.138Z,81.7946
2023-04-18T23:02:58.361Z,81.7830
2023-04-18T23:03:59.266Z,81.7168
2023-04-18T23:05:00.144Z,81.6132
2023-04-18T23:06:01.036Z,81.5557
2023-04-18T23:07:01.881Z,81.6537
2023-04-18T23:08:02.991Z,81.7146
2023-04-18T23:09:03.904Z,81.8125
2023-04-18T23:10:04.725Z,81.8568
2023-04-18T23:11:05.551Z,82.0002
2023-04-18T23:12:06.406Z,81.9380
2023-04-18T23:13:07.232Z,81.9112
2023-04-18T23:14:08.035Z,81.9120
2023-04-18T23:15:08.874Z,81.9445
2023-04-18T23:16:09.942Z,81.9994
2023-04-18T23:17:10.824Z,81.9494
2023-04-18T23:18:11.892Z,81.9078
2023-04-18T23:19:12.722Z,81.8446
2023-04-18T23:20:13.557Z,81.7822
2023-04-18T23:21:14.353Z,81.7803
2023-04-18T23:22:15.154Z,81.8776
2023-04-18T23:23:15.976Z,81.9605
2023-04-18T23:24:16.962Z,82.0477
2023-04-18T23:25:17.838Z,82.1013
2023-04-18T23:26:18.920Z,82.1144
2023-04-18T23:27:19.782Z,82.0930
2023-04-18T23:28:20.736Z,82.0803
2023-04-18T23:29:21.517Z,82.0636
2023-04-18T23:30:22.353Z,82.0461
2023-04-18T23:31:23.193Z,82.0748
2023-04-18T23:32:24.108Z,81.9898
2023-04-18T23:33:24.944Z,81.9560
2023-04-18T23:34:25.741Z,82.0097
2023-04-18T23:35:26.534Z,82.0325
2023-04-18T23:36:27.379Z,81.9821
2023-04-18T23:37:28.213Z,81.8316
2023-04-18T23:38:29.016Z,81.7791
2023-04-18T23:39:29.829Z,81.8606
2023-04-18T23:40:30.668Z,81.9722
2023-04-18T23:41:31.470Z,82.0729
2023-04-18T23:42:32.293Z,82.1178
2023-04-18T23:43:33.347Z,82.0650
2023-04-18T23:44:34.175Z,82.0512
2023-04-18T23:45:35.011Z,82.0288
2023-04-18T23:46:36.704Z,82.0775
2023-04-18T23:47:37.643Z,82.0331
2023-04-18T23:48:40.208Z,82.0375
2023-04-18T23:49:41.014Z,82.1149
2023-04-18T23:50:41.853Z,82.0731
2023-04-18T23:51:42.676Z,82.1542
2023-04-18T23:52:43.546Z,82.3298
2023-04-18T23:53:44.651Z,82.2796
2023-04-18T23:54:45.474Z,82.3287
2023-04-18T23:55:46.288Z,82.1471
2023-04-18T23:56:47.099Z,82.1765
2023-04-18T23:57:47.951Z,82.2075
2023-04-18T23:58:48.774Z,82.2115
2023-04-18T23:59:49.584Z,82.2379
